Millwood, Missouri
Current Conditions -  °F | °C
As of 7:54 AM on Friday 31 Oct 2014 (Local Time) from KSET Reporting Station
Overcast Overcast  
Wind Chill: 38°   Ceiling: 4200
Heat Index: 45°   Visibility: 10mi
Dew Point: 31°   Wind: 17mph
Humidity: 58%   Direction: 340°NNW
Pressure: 30.21"   Gusts: 33mph
Location:  39.1404°N, 91.0631°W
Report Text: KSET 311254Z AUTO 34015G29KT 10SM OVC042 07/M01 A3021 RMK AO2 PK WND 33031/1157 SLP231 T00721006
Loading
Personal Weather Stations






























Interactive Weather Map New forecast layout! Learn more

10-Day Weather Forecast

Advertisements
Track Severe Weather on mobile